Saint Augustine, FL

8:45 AM EDT on August 27, 2014 (GMT -0400)
Craig Municipal | Change Station
CLOSE
Current Station
Airport
Location: Jacksonville Craig,
Elevation: 39 ft
Nearby Weather Stations

Elev 39 ft 30.34 °N, 81.51 °W | Updated 52 minutes ago

Partly Cloudy
Partly Cloudy
75 °F
Feels Like 75 °F
N
6
Wind Variable Wind from NNW

Today
High -- | Low -- °F
--% Chance of Precip.
Yesterday
High -- | Low -- °F
Precip. -- in
6:59 AM 7:53 PM
Waxing Crescent, 3% visible
Pressure 30.00 in
Visibility 10.0 miles
Clouds Few 3200 ft
Dew Point 71 °F
Humidity 87%
Rainfall 0.00 in
Snow Depth Not available.
UV 1 out of 12
Pollen 8.30 out of 12
Ozone Good
PM2.5 Good
Flu Activity Not available.
METAR KCRG 271153Z 33005KT 10SM FEW032 24/22 A3000 RMK AO2 SLP158 70009 T02390217 10261 20222 53012

More Conditions Fewer Conditions

Pressure 30.00 in
Visibility 10.0 miles
Clouds Few 3200 ft
Dew Point 71 °F
Humidity 87%
Rainfall 0.00 in
Snow Depth Not available.
UV 1 out of 12
Pollen 8.30 out of 12
Ozone Good
PM2.5 Good
Flu Activity Not available.
METAR KCRG 271153Z 33005KT 10SM FEW032 24/22 A3000 RMK AO2 SLP158 70009 T02390217 10261 20222 53012

More Conditions Fewer Conditions

10-Day Weather Forecast

Almanac

Astronomy

Aug. 27, 2014 Rise Set
Actual Time 6:59 AM EDT 7:53 PM EDT
Civil Twilight 6:34 AM EDT 8:17 PM EDT
Nautical Twilight 6:06 AM EDT 8:46 PM EDT
Astronomical Twilight 5:36 AM EDT 9:16 PM EDT
Moon 8:42 AM EDT 8:58 PM EDT
Length of Visible Light 13h 42m
Length of Day
12h 53m
Tomorrow will be 1m 41s shorter.
Waxing Crescent, 3% of the Moon is Illuminated
Today
Waxing Crescent
Sep 2
First Quarter
Sep 8
Full
Sep 15
Last Quarter
Sep 24
New

Today's Extremes

State Highs State Lows

Community

WunderPhotos

Upload Photos

1,747,676 photos uploaded!

Nearby

Air Quality

  Air Quality AQ Index Pollutant
Yesterday Good
OZONE
Yesterday Good
PM2.5
Current Good
PM2.5
Current Good
OZONE
Wednesday Good
OZONE
Wednesday Good
PM2.5

Snow Depth

Station Depth Elevation
No new snow has been reported.

Earthquake Activity

City Distance Mag. Time & Date
No recent earthquake activity has been reported nearby.
Minimum magnitude displayed is 2.5.

Coastal Water Temperatures

Place Temperature
Mayport (Bar Pilots Dock), FL 82.0 °F
Fernandina Beach, FL 82.0 °F
Trident Pier, FL 82.9 °F

Nearby Weather Stations